M I D A S
Marine Information and Data Acquisition System
Tripno 1912 of the Zeeleeuw from 2010-07-01 05:14:20 to 2010-07-01 14:13:49
Back to CruiseResearch ActivitiesStationsMapUnderway DataData graphs

EquipmentUnitsComments
TimeDGPSUTC
LatitudeDGPSDM.mWGS84
LongitudeDGPSDM.mWGS84
SpeedMeteo Stationm/sRelative wind speed
DirectionMeteo StationdegRelative wind direction
TemperatureMeteo Stationdeg CelciusAir temperature
PressureMeteo StationPaAtmospheric pressure
HumidityMeteo Station%Relative humidity
Missing or incorrect values are displayed as -999
Metereological data collected by the RV Zeeleeuw from 2010-07-01 05:06:50 to 2010-07-01 14:21:27
Time Latitude Longitude Speed Direction Temperature Pressure Humidity
2010-07-01 05:07 51°13.672 2°55.916 1.9 38 18 101550 44
2010-07-01 05:08 51°13.688 2°55.84 2.5 34 18 101550 46
2010-07-01 05:09 51°13.699 2°55.75 2.7 33 18.1 101550 45
2010-07-01 05:10 51°13.701 2°55.714 1.5 35 18.1 101540 44
2010-07-01 05:11 51°13.727 2°55.726 1.4 240 18.1 101540 44
2010-07-01 05:12 51°13.791 2°55.676 3.2 317 18.1 101540 44
2010-07-01 05:13 51°13.884 2°55.596 2.9 31 18.1 101540 45
2010-07-01 05:14 51°13.989 2°55.518 4.1 318 18.1 101540 44
2010-07-01 05:15 51°14.102 2°55.442 3.6 318 18.1 101530 44
2010-07-01 05:16 51°14.214 2°55.343 5.6 39 18.1 101530 44
2010-07-01 05:17 51°14.327 2°55.224 5.6 237 18.1 101530 45
2010-07-01 05:18 51°14.455 2°55.097 5.8 236 18 101520 45
2010-07-01 05:19 51°14.597 2°54.967 6 232 17.9 101530 45
2010-07-01 05:20 51°14.754 2°54.83 7.4 36 17.8 101530 46
2010-07-01 05:21 51°14.911 2°54.672 7.7 32 17.7 101520 46
2010-07-01 05:22 51°15.067 2°54.493 9.2 32 17.7 101530 45
2010-07-01 05:23 51°15.225 2°54.305 8.3 33 17.6 101530 45
2010-07-01 05:24 51°15.381 2°54.11 8.5 37 17.5 101520 46
2010-07-01 05:25 51°15.541 2°53.897 8.3 316 17.5 101520 45
2010-07-01 05:26 51°15.715 2°53.671 8.2 34 17.4 101520 45
2010-07-01 05:27 51°15.893 2°53.45 8 39 17.4 101520 45
2010-07-01 05:28 51°16.087 2°53.261 7.2 316 17.4 101520 46
2010-07-01 05:29 51°16.301 2°53.119 7 32 17.4 101530 46
2010-07-01 05:30 51°16.513 2°52.977 7.1 33 17.3 101530 46
2010-07-01 05:31 51°16.728 2°52.839 6.7 34 17.2 101530 45
2010-07-01 05:32 51°16.953 2°52.735 6 39 17.2 101530 46
2010-07-01 05:33 51°17.181 2°52.641 5.8 34 17.3 101530 47
2010-07-01 05:34 51°17.412 2°52.581 5.9 35 17.3 101530 46
2010-07-01 05:35 51°17.641 2°52.529 5.8 33 17.3 101530 48
2010-07-01 05:36 51°17.871 2°52.512 4.3 33 17.2 101530 47
2010-07-01 05:37 51°18.099 2°52.585 4 32 17.2 101540 47
2010-07-01 05:38 51°18.328 2°52.661 4.2 35 17.1 101540 49
2010-07-01 05:39 51°18.557 2°52.732 4 35 17.1 101540 47
2010-07-01 05:40 51°18.787 2°52.8 4.4 35 17.1 101530 47
2010-07-01 05:41 51°19.016 2°52.868 3.9 34 17 101530 47
2010-07-01 05:42 51°19.246 2°52.932 4.2 234 17.1 101530 47
2010-07-01 05:43 51°19.476 2°52.998 3.2 35 17 101530 48
2010-07-01 05:44 51°19.707 2°53.062 3.5 35 17 101530 47
2010-07-01 05:45 51°19.937 2°53.125 3.9 35 17 101530 48
2010-07-01 05:46 51°20.166 2°53.19 3.5 36 17 101530 46
2010-07-01 05:47 51°20.396 2°53.251 3.4 34 17 101520 48
2010-07-01 05:48 51°20.626 2°53.313 4 236 17 101530 47
2010-07-01 05:49 51°20.856 2°53.376 3.6 234 17 101530 46
2010-07-01 05:50 51°21.085 2°53.436 3.8 34 17 101530 46
2010-07-01 05:51 51°21.316 2°53.498 3.7 32 17 101520 48
2010-07-01 05:52 51°21.547 2°53.559 3.7 33 17 101520 48
2010-07-01 05:53 51°21.777 2°53.602 4.8 236 17 101520 47
2010-07-01 05:54 51°22.01 2°53.602 4.4 35 17 101520 47
2010-07-01 05:55 51°22.243 2°53.601 5.2 237 17 101520 48
2010-07-01 05:56 51°22.476 2°53.597 4.3 238 17 101510 49
2010-07-01 05:57 51°22.711 2°53.599 4.6 34 17 101510 47
2010-07-01 05:58 51°22.951 2°53.605 4.2 233 16.9 101510 49
2010-07-01 05:59 51°23.189 2°53.608 4.3 235 16.9 101510 48
2010-07-01 06:00 51°23.425 2°53.606 4.4 233 16.9 101520 47
2010-07-01 06:01 51°23.658 2°53.602 4.3 239 16.9 101510 49
2010-07-01 06:02 51°23.893 2°53.6 4.4 237 16.8 101510 48
2010-07-01 06:03 51°24.128 2°53.594 5 236 16.9 101510 48
2010-07-01 06:04 51°24.364 2°53.59 4.8 234 16.8 101520 50
2010-07-01 06:05 51°24.602 2°53.587 4.7 33 16.8 101520 49
2010-07-01 06:06 51°24.837 2°53.579 5.3 35 16.7 101510 48
2010-07-01 06:07 51°25.073 2°53.569 5.4 31 16.7 101520 48
2010-07-01 06:08 51°25.307 2°53.557 5.2 233 16.7 101520 50
2010-07-01 06:09 51°25.541 2°53.548 5.3 233 16.7 101520 48
2010-07-01 06:10 51°25.778 2°53.537 5 35 16.6 101510 48
2010-07-01 06:11 51°26.013 2°53.527 5.9 235 16.6 101520 49
2010-07-01 06:12 51°26.252 2°53.52 5.5 235 16.6 101520 48
2010-07-01 06:13 51°26.492 2°53.517 5.1 238 16.6 101510 49
2010-07-01 06:14 51°26.729 2°53.517 4.4 33 16.6 101520 49
2010-07-01 06:15 51°26.961 2°53.543 4.8 235 16.7 101510 48
2010-07-01 06:16 51°27.193 2°53.568 4.8 239 16.7 101510 49
2010-07-01 06:17 51°27.429 2°53.595 4.9 31 16.6 101510 49
2010-07-01 06:18 51°27.665 2°53.621 4.9 238 16.6 101520 47
2010-07-01 06:19 51°27.903 2°53.648 4.2 235 16.6 101510 47
2010-07-01 06:20 51°28.141 2°53.674 4.5 237 16.6 101510 49
2010-07-01 06:24 51°28.902 2°53.925 3.6 306 16.6 101510 49
2010-07-01 06:25 51°29.137 2°54.014 3.1 307 16.6 101510 48
2010-07-01 06:26 51°29.362 2°54.097 3.5 307 16.6 101520 48
2010-07-01 06:27 51°29.596 2°54.186 3.8 303 16.6 101510 50
2010-07-01 06:28 51°29.826 2°54.276 3 309 16.6 101520 48
2010-07-01 06:29 51°30.059 2°54.375 3.4 305 16.6 101510 48
2010-07-01 06:30 51°30.294 2°54.477 3.5 301 16.6 101510 47
2010-07-01 06:31 51°30.524 2°54.584 3 303 16.6 101510 47
2010-07-01 06:32 51°30.709 2°54.683 1.5 308 16.6 101510 49
2010-07-01 06:33 51°30.818 2°54.749 2.8 59 16.6 101520 48
2010-07-01 06:34 51°30.908 2°54.808 3 58 16.6 101520 47
2010-07-01 06:35 51°30.991 2°54.859 3.1 59 16.5 101520 47
2010-07-01 06:36 51°31.071 2°54.907 2.4 57 16.5 101520 49
2010-07-01 06:37 51°31.149 2°54.956 3.1 55 16.5 101510 47
2010-07-01 06:38 51°31.224 2°55.004 3.3 53 16.4 101520 48
2010-07-01 06:39 51°31.303 2°55.052 3.6 51 16.4 101520 49
2010-07-01 06:40 51°31.38 2°55.097 3.6 51 16.4 101520 48
2010-07-01 06:41 51°31.47 2°55.133 3.6 303 16.3 101520 47
2010-07-01 06:42 51°31.569 2°55.137 4.8 309 16.3 101520 50
2010-07-01 06:43 51°31.676 2°55.134 3.6 307 16.4 101520 48
2010-07-01 06:44 51°31.781 2°55.136 3.6 307 16.5 101520 48
2010-07-01 06:45 51°31.89 2°55.14 4 301 16.5 101520 48
2010-07-01 06:46 51°31.995 2°55.141 4 306 16.5 101520 48
2010-07-01 06:47 51°32.102 2°55.144 3.1 307 16.5 101520 48
2010-07-01 06:48 51°32.209 2°55.15 2.6 309 16.5 101520 47
2010-07-01 06:49 51°32.314 2°55.154 4.4 306 16.5 101520 48
2010-07-01 06:50 51°32.415 2°55.15 2.9 304 16.5 101520 48
2010-07-01 06:51 51°32.479 2°55.144 5.3 309 16.5 101520 48
2010-07-01 06:52 51°32.531 2°55.118 5 300 16.5 101530 48
2010-07-01 06:53 51°32.569 2°55.101 6.1 302 16.6 101520 48
2010-07-01 06:54 51°32.601 2°55.09 5.6 301 16.6 101520 48
2010-07-01 06:55 51°32.63 2°55.083 6.7 308 16.5 101530 49
2010-07-01 06:56 51°32.655 2°55.079 6.1 307 16.5 101530 47
2010-07-01 06:57 51°32.678 2°55.076 7.1 303 16.5 101530 48
2010-07-01 06:58 51°32.699 2°55.075 5.2 308 16.5 101530 49
2010-07-01 06:59 51°32.754 2°55.07 3.4 52 16.5 101540 48
2010-07-01 07:00 51°32.799 2°55.123 3.9 59 16.4 101530 48
2010-07-01 07:01 51°32.81 2°55.196 4 25 16.4 101530 49
2010-07-01 07:02 51°32.804 2°55.274 3.8 29 16.3 101530 48
2010-07-01 07:03 51°32.799 2°55.365 4.7 24 16.3 101530 50
2010-07-01 07:04 51°32.783 2°55.453 4.2 16 16.3 101540 48
2010-07-01 07:05 51°32.759 2°55.533 4.9 15 16.3 101530 50
2010-07-01 07:06 51°32.73 2°55.606 4.5 18 16.2 101530 50
2010-07-01 07:07 51°32.709 2°55.651 5.6 13 16.2 101530 48
2010-07-01 07:08 51°32.694 2°55.685 4.7 13 16.1 101530 50
2010-07-01 07:09 51°32.686 2°55.71 4.8 15 16.1 101530 48
2010-07-01 07:10 51°32.683 2°55.729 4.1 16 16.2 101530 48
2010-07-01 07:11 51°32.681 2°55.748 4.8 7 16.2 101530 48
2010-07-01 07:12 51°32.664 2°55.762 4.9 352 16.1 101530 50
2010-07-01 07:13 51°32.644 2°55.746 4.3 335 16.1 101530 49
2010-07-01 07:14 51°32.646 2°55.736 4.6 303 16.1 101530 50
2010-07-01 07:15 51°32.657 2°55.734 5 307 16.2 101540 51
2010-07-01 07:16 51°32.672 2°55.737 4.4 304 16.2 101530 51
2010-07-01 07:17 51°32.687 2°55.745 5.6 306 16.3 101530 50
2010-07-01 07:18 51°32.712 2°55.731 4.8 301 16.3 101530 49
2010-07-01 07:19 51°32.733 2°55.71 4.8 302 16.4 101530 50
2010-07-01 07:20 51°32.75 2°55.697 5 309 16.4 101540 48
2010-07-01 07:21 51°32.765 2°55.688 5 302 16.4 101530 49
2010-07-01 07:22 51°32.778 2°55.671 5.8 301 16.5 101530 48
2010-07-01 07:23 51°32.761 2°55.619 5.8 345 16.5 101540 49
2010-07-01 07:24 51°32.736 2°55.606 4.5 351 16.4 101530 48
2010-07-01 07:25 51°32.721 2°55.608 4.6 355 16.3 101540 49
2010-07-01 07:26 51°32.712 2°55.616 4.6 -999 16.2 101540 49
2010-07-01 07:27 51°32.709 2°55.628 4 3 16.1 101540 48
2010-07-01 07:28 51°32.71 2°55.642 5.1 8 16.1 101540 48
2010-07-01 07:29 51°32.714 2°55.654 5.5 10 16 101540 50
2010-07-01 07:30 51°32.721 2°55.666 4.5 8 16 101540 50
2010-07-01 07:31 51°32.729 2°55.678 4.6 10 16.1 101540 49
2010-07-01 07:32 51°32.737 2°55.687 4.8 9 16.1 101540 50
2010-07-01 07:33 51°32.744 2°55.699 5.1 1 16 101540 49
2010-07-01 07:34 51°32.731 2°55.704 5.8 349 16 101540 50
2010-07-01 07:35 51°32.719 2°55.696 4.1 343 16 101540 48
2010-07-01 07:36 51°32.716 2°55.691 5 345 16 101540 48
2010-07-01 07:37 51°32.718 2°55.691 4.9 350 16 101540 48
2010-07-01 07:38 51°32.721 2°55.695 4 356 16 101540 49
2010-07-01 07:39 51°32.728 2°55.703 4.2 357 16 101540 50
2010-07-01 07:40 51°32.737 2°55.711 4.7 5 16 101540 50
2010-07-01 07:41 51°32.745 2°55.719 3.9 7 16 101540 50
2010-07-01 07:42 51°32.745 2°55.731 4.6 360 16 101540 48
2010-07-01 07:43 51°32.736 2°55.735 4.8 348 16 101540 50
2010-07-01 07:44 51°32.728 2°55.735 4.2 354 16 101540 48
2010-07-01 07:45 51°32.725 2°55.736 4.2 352 16 101540 49
2010-07-01 07:46 51°32.726 2°55.739 4.4 351 16 101540 49
2010-07-01 07:47 51°32.718 2°55.745 4.3 3 16 101540 49
2010-07-01 07:48 51°32.704 2°55.777 4.3 28 16 101540 48
2010-07-01 07:49 51°32.709 2°55.827 3.5 54 16 101550 48
2010-07-01 07:50 51°32.734 2°55.867 2.5 54 16 101550 50
2010-07-01 07:51 51°32.766 2°55.891 3.5 53 16 101550 48
2010-07-01 07:52 51°32.794 2°55.907 4 53 16.1 101540 48
2010-07-01 07:53 51°32.822 2°55.921 3.4 59 16.1 101540 48
2010-07-01 07:54 51°32.846 2°55.93 3.5 58 16.1 101540 49
2010-07-01 07:55 51°32.874 2°55.941 3.5 57 16.1 101540 49
2010-07-01 07:56 51°32.9 2°55.96 2.7 56 16.2 101540 48
2010-07-01 07:57 51°32.921 2°55.991 4.4 59 16.2 101550 49
2010-07-01 07:58 51°32.935 2°56.019 4.1 41 16.1 101540 48
2010-07-01 07:59 51°32.944 2°56.044 4 40 16.2 101540 50
2010-07-01 08:00 51°32.956 2°56.073 3.5 42 16.2 101540 50
2010-07-01 08:01 51°32.977 2°56.105 2.6 52 16.2 101540 48
2010-07-01 08:02 51°33.012 2°56.119 3.5 308 16.2 101540 50
2010-07-01 08:03 51°33.045 2°56.111 2.9 304 16.2 101540 50
2010-07-01 08:04 51°33.071 2°56.1 3.2 303 16.2 101540 50
2010-07-01 08:05 51°33.094 2°56.089 2.6 309 16.3 101540 48
2010-07-01 08:06 51°33.115 2°56.079 2.9 307 16.3 101540 48
2010-07-01 08:07 51°33.131 2°56.072 4 303 16.3 101540 49
2010-07-01 08:08 51°33.147 2°56.066 4.8 308 16.3 101540 48
2010-07-01 08:09 51°33.16 2°56.061 4.5 303 16.3 101540 48
2010-07-01 08:10 51°33.171 2°56.057 4.1 307 16.4 101540 50
2010-07-01 08:11 51°33.186 2°56.044 4.6 304 16.4 101540 48
2010-07-01 08:12 51°33.2 2°56.012 4.9 300 16.5 101540 49
2010-07-01 08:13 51°33.204 2°55.968 4.9 308 16.5 101540 49
2010-07-01 08:14 51°33.201 2°55.934 4 303 16.5 101540 47
2010-07-01 08:15 51°33.197 2°55.905 4.6 332 16.5 101530 49
2010-07-01 08:16 51°33.186 2°55.883 4.4 342 16.5 101530 49
2010-07-01 08:17 51°33.178 2°55.874 4.4 351 16.4 101540 47
2010-07-01 08:18 51°33.173 2°55.872 4.4 355 16.3 101540 47
2010-07-01 08:19 51°33.164 2°55.873 4.6 358 16.2 101540 49
2010-07-01 08:20 51°33.156 2°55.875 4.3 358 16.2 101540 50
2010-07-01 08:21 51°33.15 2°55.878 4.7 358 16.1 101540 48
2010-07-01 08:22 51°33.144 2°55.884 4.2 3 16.1 101540 48
2010-07-01 08:23 51°33.137 2°55.891 4.7 -999 16.1 101540 49
2010-07-01 08:24 51°33.128 2°55.901 3.6 5 16.1 101540 49
2010-07-01 08:25 51°33.117 2°55.909 3.4 3 16.1 101530 49
2010-07-01 08:26 51°33.108 2°55.917 4.4 359 16 101530 48
2010-07-01 08:27 51°33.103 2°55.922 4 4 16 101540 49
2010-07-01 08:28 51°33.101 2°55.926 4 6 16.1 101540 50
2010-07-01 08:29 51°33.101 2°55.93 3.9 8 16.1 101530 48
2010-07-01 08:30 51°33.102 2°55.933 3.2 7 16.1 101540 50
2010-07-01 08:31 51°33.104 2°55.936 4 8 16.2 101540 51
2010-07-01 08:32 51°33.104 2°55.936 3.6 7 16.2 101540 48
2010-07-01 08:33 51°33.108 2°55.939 3.9 8 16.2 101540 50
2010-07-01 08:34 51°33.112 2°55.942 4.9 10 16.1 101540 50
2010-07-01 08:35 51°33.116 2°55.944 4.8 16 16.2 101540 50
2010-07-01 08:36 51°33.121 2°55.946 5.2 18 16.2 101540 49
2010-07-01 08:37 51°33.126 2°55.947 3.8 21 16.2 101540 49
2010-07-01 08:38 51°33.131 2°55.948 4.4 21 16.2 101540 49
2010-07-01 08:39 51°33.137 2°55.948 4.7 19 16.3 101540 50
2010-07-01 08:40 51°33.142 2°55.945 4 23 16.3 101540 50
2010-07-01 08:41 51°33.15 2°55.935 4.2 28 16.3 101540 49
2010-07-01 08:42 51°33.156 2°55.926 4 33 16.3 101540 48
2010-07-01 08:43 51°33.161 2°55.918 4.3 32 16.3 101540 49
2010-07-01 08:44 51°33.166 2°55.911 5.1 35 16.3 101550 47
2010-07-01 08:45 51°33.171 2°55.905 4.8 33 16.3 101540 48
2010-07-01 08:46 51°33.174 2°55.901 4.5 32 16.3 101540 49
2010-07-01 08:47 51°33.177 2°55.897 4.4 27 16.3 101550 49
2010-07-01 08:48 51°33.179 2°55.895 3.7 22 16.3 101540 48
2010-07-01 08:49 51°33.175 2°55.902 4.2 22 16.4 101540 48
2010-07-01 08:50 51°33.16 2°55.918 3.8 8 16.4 101540 49
2010-07-01 08:51 51°33.144 2°55.926 3.8 8 16.3 101540 49
2010-07-01 08:52 51°33.132 2°55.931 5 10 16.4 101540 48
2010-07-01 08:53 51°33.125 2°55.934 4.9 11 16.3 101540 49
2010-07-01 08:54 51°33.119 2°55.936 4.3 12 16.4 101540 47
2010-07-01 08:55 51°33.114 2°55.936 4.5 9 16.4 101540 49
2010-07-01 08:56 51°33.093 2°55.941 5.3 350 16.4 101540 48
2010-07-01 08:57 51°33.068 2°55.93 4 337 16.3 101550 47
2010-07-01 08:58 51°33.051 2°55.908 4.5 327 16.5 101540 47
2010-07-01 08:59 51°33.041 2°55.879 4.2 308 16.5 101550 49
2010-07-01 09:00 51°33.039 2°55.85 5.2 308 16.6 101540 48
2010-07-01 09:01 51°33.039 2°55.809 4.7 301 16.6 101530 46
2010-07-01 09:02 51°33.023 2°55.749 5.2 303 16.7 101530 48
2010-07-01 09:03 51°32.99 2°55.688 5.6 333 16.8 101540 46
2010-07-01 09:04 51°32.938 2°55.62 7.6 336 16.7 101530 46
2010-07-01 09:05 51°32.885 2°55.562 5.4 345 16.7 101530 46
2010-07-01 09:06 51°32.833 2°55.547 5 351 16.6 101530 47
2010-07-01 09:07 51°32.774 2°55.544 5.5 350 16.5 101530 46
2010-07-01 09:08 51°32.728 2°55.513 4.9 335 16.4 101540 47
2010-07-01 09:09 51°32.705 2°55.479 4.3 327 16.5 101540 49
2010-07-01 09:10 51°32.69 2°55.452 4.5 301 16.6 101540 49
2010-07-01 09:11 51°32.681 2°55.427 4.5 300 16.7 101530 47
2010-07-01 09:12 51°32.676 2°55.408 4.8 304 16.7 101540 48
2010-07-01 09:13 51°32.673 2°55.391 3.5 303 16.8 101530 48
2010-07-01 09:14 51°32.672 2°55.378 5.7 309 16.9 101540 48
2010-07-01 09:15 51°32.67 2°55.367 3.6 309 16.9 101540 46
2010-07-01 09:16 51°32.668 2°55.355 3.7 306 16.9 101540 48
2010-07-01 09:17 51°32.666 2°55.344 3 301 16.9 101540 48
2010-07-01 09:18 51°32.663 2°55.333 3.7 302 16.8 101540 47
2010-07-01 09:19 51°32.66 2°55.324 3.8 309 16.8 101540 46
2010-07-01 09:20 51°32.657 2°55.313 2.8 301 16.8 101540 48
2010-07-01 09:21 51°32.654 2°55.304 3.1 308 16.8 101550 48
2010-07-01 09:22 51°32.651 2°55.296 2.6 306 16.8 101550 46
2010-07-01 09:23 51°32.646 2°55.286 2.1 303 16.7 101540 48
2010-07-01 09:24 51°32.643 2°55.279 3 305 16.8 101540 46
2010-07-01 09:25 51°32.637 2°55.269 3.2 304 16.8 101550 46
2010-07-01 09:26 51°32.632 2°55.26 3 300 16.7 101550 46
2010-07-01 09:27 51°32.625 2°55.25 2.5 308 16.8 101540 48
2010-07-01 09:28 51°32.619 2°55.24 2.2 308 16.7 101540 48
2010-07-01 09:29 51°32.613 2°55.23 3 301 16.8 101540 48
2010-07-01 09:30 51°32.605 2°55.22 3.4 305 16.8 101540 48
2010-07-01 09:31 51°32.597 2°55.208 2.5 307 16.8 101540 45
2010-07-01 09:32 51°32.589 2°55.199 2.3 307 16.8 101540 47
2010-07-01 09:33 51°32.596 2°55.176 2.5 301 16.9 101540 48
2010-07-01 09:34 51°32.645 2°55.161 2.3 60 16.9 101540 48
2010-07-01 09:35 51°32.679 2°55.185 1.9 51 16.8 101540 47
2010-07-01 09:36 51°32.701 2°55.206 3 55 16.9 101540 47
2010-07-01 09:37 51°32.715 2°55.215 3.2 54 16.8 101540 48
2010-07-01 09:38 51°32.726 2°55.215 3.1 51 16.8 101530 46
2010-07-01 09:39 51°32.735 2°55.213 3.3 51 16.7 101530 46
2010-07-01 09:40 51°32.754 2°55.214 3.1 57 16.7 101540 47
2010-07-01 09:41 51°32.769 2°55.213 3.1 59 16.7 101540 48
2010-07-01 09:42 51°32.784 2°55.213 3.1 59 16.7 101540 48
2010-07-01 09:43 51°32.795 2°55.226 2.7 61 16.6 101540 46
2010-07-01 09:44 51°32.81 2°55.238 2.2 54 16.6 101540 46
2010-07-01 09:45 51°32.822 2°55.242 2.9 58 16.6 101540 48
2010-07-01 09:46 51°32.833 2°55.235 3.2 53 16.6 101530 49
2010-07-01 09:47 51°32.843 2°55.214 2.1 301 16.7 101530 47
2010-07-01 09:48 51°32.846 2°55.188 2.8 305 16.7 101530 46
2010-07-01 09:49 51°32.85 2°55.151 4.1 301 16.7 101530 48
2010-07-01 09:50 51°32.828 2°55.05 5.6 335 16.8 101520 48
2010-07-01 09:51 51°32.734 2°55.043 4.3 5 16.8 101510 47
2010-07-01 09:52 51°32.668 2°55.162 3.9 9 16.6 101520 47
2010-07-01 09:53 51°32.62 2°55.304 2.8 22 16.6 101530 48
2010-07-01 09:54 51°32.604 2°55.342 3.5 25 16.6 101520 47
2010-07-01 09:55 51°32.591 2°55.335 3.4 28 16.7 101520 46
2010-07-01 09:56 51°32.58 2°55.318 3.6 31 16.7 101520 48
2010-07-01 09:57 51°32.571 2°55.307 3.6 38 16.7 101520 46
2010-07-01 09:58 51°32.565 2°55.312 3.7 61 16.7 101520 48
2010-07-01 09:59 51°32.561 2°55.328 3.3 43 16.6 101520 48
2010-07-01 10:00 51°32.56 2°55.344 2.9 51 16.6 101530 48
2010-07-01 10:01 51°32.562 2°55.353 3.2 59 16.7 101530 48
2010-07-01 10:02 51°32.565 2°55.354 1.6 54 16.6 101520 46
2010-07-01 10:03 51°32.565 2°55.351 1.1 53 16.9 101530 47
2010-07-01 10:04 51°32.564 2°55.346 2.8 53 17.1 101530 48
2010-07-01 10:05 51°32.562 2°55.338 3.1 53 17.1 101520 46
2010-07-01 10:06 51°32.56 2°55.331 2.7 53 16.9 101520 47
2010-07-01 10:07 51°32.559 2°55.325 3.5 53 16.9 101520 49
2010-07-01 10:08 51°32.562 2°55.321 3.2 58 16.7 101530 47
2010-07-01 10:09 51°32.565 2°55.317 2.5 58 16.7 101530 47
2010-07-01 10:10 51°32.568 2°55.316 3.3 55 16.7 101530 46
2010-07-01 10:11 51°32.569 2°55.316 3.5 58 16.6 101520 48
2010-07-01 10:12 51°32.569 2°55.315 2.8 53 16.6 101530 48
2010-07-01 10:13 51°32.567 2°55.315 2 59 16.6 101530 46
2010-07-01 10:14 51°32.566 2°55.314 2.2 60 16.6 101520 49
2010-07-01 10:15 51°32.565 2°55.315 1.8 54 16.6 101530 47
2010-07-01 10:16 51°32.563 2°55.317 1.6 55 16.6 101520 47
2010-07-01 10:17 51°32.563 2°55.318 1.9 56 16.7 101530 50
2010-07-01 10:18 51°32.562 2°55.318 0.1 60 16.7 101520 50
2010-07-01 10:19 51°32.563 2°55.318 2.2 53 17 101520 49
2010-07-01 10:20 51°32.563 2°55.318 1.9 58 17 101530 49
2010-07-01 10:21 51°32.563 2°55.318 2.2 60 17.2 101520 48
2010-07-01 10:22 51°32.564 2°55.318 1.5 58 17.3 101520 48
2010-07-01 10:23 51°32.564 2°55.317 2.2 54 17.4 101520 48
2010-07-01 10:24 51°32.565 2°55.316 1.3 58 17.2 101520 48
2010-07-01 10:25 51°32.564 2°55.317 1.6 54 17.4 101530 49
2010-07-01 10:26 51°32.563 2°55.317 2.2 55 17.7 101520 48
2010-07-01 10:27 51°32.563 2°55.317 1.8 59 17.7 101530 48
2010-07-01 10:28 51°32.562 2°55.319 1.5 56 17.7 101530 47
2010-07-01 10:29 51°32.562 2°55.32 1.6 55 17.7 101530 46
2010-07-01 10:30 51°32.562 2°55.32 1.8 55 17.8 101530 47
2010-07-01 10:31 51°32.562 2°55.319 2.6 52 17.7 101530 48
2010-07-01 10:32 51°32.563 2°55.317 2.1 54 17.4 101530 47
2010-07-01 10:33 51°32.564 2°55.316 2.5 57 17.2 101530 49
2010-07-01 10:34 51°32.565 2°55.317 1.8 52 17 101520 47
2010-07-01 10:35 51°32.564 2°55.317 2 61 16.9 101520 47
2010-07-01 10:36 51°32.563 2°55.317 0.7 53 16.9 101530 47
2010-07-01 10:37 51°32.562 2°55.319 1.2 59 17.2 101520 49
2010-07-01 10:38 51°32.562 2°55.319 1 57 17.5 101530 48
2010-07-01 10:39 51°32.562 2°55.318 1 55 17.7 101530 48
2010-07-01 10:40 51°32.563 2°55.317 0.6 52 17.9 101520 48
2010-07-01 10:41 51°32.565 2°55.316 0.7 41 18 101520 48
2010-07-01 10:42 51°32.565 2°55.316 0.8 57 18.1 101530 47
2010-07-01 10:43 51°32.564 2°55.317 1.5 60 18.2 101530 47
2010-07-01 10:44 51°32.563 2°55.318 2 53 18 101530 46
2010-07-01 10:45 51°32.561 2°55.32 2.4 51 17.8 101520 45
2010-07-01 10:46 51°32.561 2°55.32 1.4 61 17.6 101520 47
2010-07-01 10:47 51°32.562 2°55.32 1.6 56 17.6 101520 48
2010-07-01 10:48 51°32.562 2°55.32 0.7 55 17.7 101520 49
2010-07-01 10:49 51°32.562 2°55.318 0.5 59 17.9 101520 47
2010-07-01 10:50 51°32.563 2°55.316 0.2 55 18.1 101520 47
2010-07-01 10:51 51°32.564 2°55.316 0.4 58 18.3 101520 47
2010-07-01 10:52 51°32.565 2°55.316 1.2 52 18.4 101520 47
2010-07-01 10:53 51°32.565 2°55.315 0.1 55 18.4 101520 47
2010-07-01 10:54 51°32.563 2°55.315 1.1 52 18.5 101520 48
2010-07-01 10:55 51°32.563 2°55.316 0.1 50 18.6 101520 46
2010-07-01 10:56 51°32.563 2°55.317 1.7 51 18.6 101510 46
2010-07-01 10:57 51°32.562 2°55.319 1.8 59 18.4 101510 46
2010-07-01 10:58 51°32.562 2°55.319 1.8 57 18.1 101510 46
2010-07-01 10:59 51°32.561 2°55.319 0.2 59 18 101510 47
2010-07-01 11:00 51°32.562 2°55.319 -999 59 17.9 101510 48
2010-07-01 11:01 51°32.563 2°55.317 0.1 55 18 101520 48
2010-07-01 11:02 51°32.563 2°55.316 0.1 56 18.1 101510 48
2010-07-01 11:03 51°32.563 2°55.317 -999 55 18.3 101510 47
2010-07-01 11:04 51°32.563 2°55.317 0.1 56 18.5 101510 47
2010-07-01 11:05 51°32.563 2°55.317 -999 55 18.7 101510 47
2010-07-01 11:06 51°32.563 2°55.317 1.4 50 18.8 101510 46
2010-07-01 11:07 51°32.562 2°55.319 0.5 58 18.9 101510 46
2010-07-01 11:08 51°32.562 2°55.319 0.5 52 18.8 101510 46
2010-07-01 11:09 51°32.562 2°55.319 1.8 55 18.4 101510 45
2010-07-01 11:10 51°32.562 2°55.318 1.9 50 18.1 101510 46
2010-07-01 11:11 51°32.564 2°55.317 1.6 57 17.8 101510 46
2010-07-01 11:12 51°32.563 2°55.318 0.9 54 17.6 101500 47
2010-07-01 11:13 51°32.563 2°55.316 0.5 60 17.5 101500 48
2010-07-01 11:14 51°32.564 2°55.315 0.7 50 17.4 101500 48
2010-07-01 11:15 51°32.564 2°55.316 0.1 55 17.6 101500 49
2010-07-01 11:16 51°32.564 2°55.316 -999 55 17.7 101500 48
2010-07-01 11:17 51°32.564 2°55.316 -999 56 17.7 101500 48
2010-07-01 11:18 51°32.564 2°55.314 0.1 55 17.6 101500 47
2010-07-01 11:19 51°32.564 2°55.315 -999 55 17.6 101500 48
2010-07-01 11:20 51°32.563 2°55.317 -999 55 17.8 101500 49
2010-07-01 11:21 51°32.562 2°55.318 -999 55 17.9 101500 48
2010-07-01 11:22 51°32.562 2°55.318 -999 55 17.8 101500 48
2010-07-01 11:23 51°32.562 2°55.318 0.1 56 17.8 101500 49
2010-07-01 11:24 51°32.562 2°55.32 2.1 57 17.7 101500 47
2010-07-01 11:25 51°32.562 2°55.32 0.2 56 17.5 101500 47
2010-07-01 11:26 51°32.562 2°55.317 -999 55 17.7 101500 49
2010-07-01 11:27 51°32.563 2°55.318 -999 56 18 101500 48
2010-07-01 11:28 51°32.564 2°55.317 -999 55 18.3 101500 48
2010-07-01 11:29 51°32.564 2°55.316 0.1 55 18.6 101490 48
2010-07-01 11:30 51°32.565 2°55.314 -999 55 18.9 101490 47
2010-07-01 11:31 51°32.565 2°55.315 -999 55 19.1 101490 47
2010-07-01 11:32 51°32.564 2°55.317 -999 56 19.2 101500 46
2010-07-01 11:33 51°32.563 2°55.317 -999 56 19.3 101500 46
2010-07-01 11:34 51°32.563 2°55.317 -999 56 19.4 101490 46
2010-07-01 11:35 51°32.564 2°55.316 -999 56 19.4 101490 45
2010-07-01 11:36 51°32.564 2°55.315 -999 55 19.5 101490 46
2010-07-01 11:37 51°32.564 2°55.316 0.2 54 19.4 101490 46
2010-07-01 11:38 51°32.569 2°55.323 0.1 59 19.1 101500 46
2010-07-01 11:39 51°32.579 2°55.336 0.1 56 18.9 101500 46
2010-07-01 11:40 51°32.593 2°55.345 0.1 52 18.6 101490 47
2010-07-01 11:41 51°32.604 2°55.343 0.9 53 18.6 101490 47
2010-07-01 11:42 51°32.633 2°55.323 2 307 18.3 101490 47
2010-07-01 11:43 51°32.656 2°55.193 4.5 303 18.2 101490 46
2010-07-01 11:44 51°32.582 2°55.02 6.9 327 18.1 101480 46
2010-07-01 11:45 51°32.41 2°54.769 8.5 328 17.8 101470 48
2010-07-01 11:46 51°32.229 2°54.499 8 328 17.7 101470 48
2010-07-01 11:47 51°32.047 2°54.226 9.3 328 17.5 101480 48
2010-07-01 11:48 51°31.868 2°53.952 9.3 328 17.4 101480 49
2010-07-01 11:49 51°31.689 2°53.676 8.8 329 17.3 101480 49
2010-07-01 11:50 51°31.508 2°53.403 7.9 330 17.2 101480 49
2010-07-01 11:51 51°31.328 2°53.127 8.1 331 17.2 101480 49
2010-07-01 11:52 51°31.148 2°52.853 8.2 330 17.2 101470 48
2010-07-01 11:53 51°30.965 2°52.576 9.4 329 17.2 101480 48
2010-07-01 11:54 51°30.789 2°52.308 8.1 329 17.1 101480 48
2010-07-01 11:55 51°30.609 2°52.036 8.5 330 17.2 101480 49
2010-07-01 11:56 51°30.431 2°51.763 8.1 329 17.2 101480 49
2010-07-01 11:57 51°30.252 2°51.492 8.2 330 17.2 101470 48
2010-07-01 11:58 51°30.077 2°51.219 8.1 330 17.2 101470 47
2010-07-01 11:59 51°29.901 2°50.946 8.6 329 17.2 101470 48
2010-07-01 12:00 51°29.725 2°50.672 8.3 329 17.2 101470 47
2010-07-01 12:01 51°29.55 2°50.397 8.7 330 17.3 101470 48
2010-07-01 12:02 51°29.372 2°50.116 8 329 17.2 101460 48
2010-07-01 12:03 51°29.199 2°49.842 9.6 331 17.3 101470 47
2010-07-01 12:04 51°29.028 2°49.557 9.5 331 17.3 101470 48
2010-07-01 12:05 51°28.856 2°49.269 7.7 332 17.4 101470 47
2010-07-01 12:06 51°28.683 2°48.98 9.4 331 17.4 101470 48
2010-07-01 12:07 51°28.512 2°48.689 9.2 332 17.4 101470 47
2010-07-01 12:08 51°28.341 2°48.394 9.2 330 17.4 101470 47
2010-07-01 12:09 51°28.17 2°48.099 9.5 331 17.4 101470 48
2010-07-01 12:10 51°27.998 2°47.804 9.3 331 17.4 101470 47
2010-07-01 12:11 51°27.826 2°47.507 9.5 331 17.4 101470 47
2010-07-01 12:12 51°27.654 2°47.211 9.1 330 17.4 101470 46
2010-07-01 12:13 51°27.48 2°46.908 8 330 17.3 101470 47
2010-07-01 12:14 51°27.312 2°46.617 7.5 330 17.4 101470 47
2010-07-01 12:15 51°27.137 2°46.328 9 331 17.4 101470 47
2010-07-01 12:16 51°26.953 2°46.054 8.9 331 17.4 101460 47
2010-07-01 12:17 51°26.77 2°45.779 9.1 330 17.4 101460 46
2010-07-01 12:18 51°26.58 2°45.518 8.8 332 17.4 101460 46
2010-07-01 12:19 51°26.383 2°45.272 8.5 330 17.4 101460 47
2010-07-01 12:20 51°26.186 2°45.024 7.9 330 17.4 101450 47
2010-07-01 12:21 51°25.989 2°44.776 7.4 330 17.4 101460 47
2010-07-01 12:22 51°25.785 2°44.537 8 333 17.4 101450 47
2010-07-01 12:23 51°25.577 2°44.332 8 330 17.4 101460 48
2010-07-01 12:24 51°25.365 2°44.122 6.9 331 17.4 101460 48
2010-07-01 12:25 51°25.153 2°43.912 7.2 331 17.4 101450 48
2010-07-01 12:26 51°24.923 2°43.779 7.6 335 17.4 101460 49
2010-07-01 12:27 51°24.71 2°43.709 4.2 336 17.4 101450 48
2010-07-01 12:28 51°24.601 2°43.639 2.6 338 17.4 101470 49
2010-07-01 12:29 51°24.529 2°43.663 0.7 350 17.5 101470 49
2010-07-01 12:30 51°24.544 2°43.727 -999 327 17.5 101470 48
2010-07-01 12:31 51°24.593 2°43.706 -999 305 17.6 101470 48
2010-07-01 12:32 51°24.632 2°43.674 -999 304 17.8 101470 49
2010-07-01 12:33 51°24.656 2°43.682 -999 332 18.1 101470 49
2010-07-01 12:34 51°24.668 2°43.704 -999 336 18.3 101470 49
2010-07-01 12:35 51°24.682 2°43.723 -999 336 18.4 101470 49
2010-07-01 12:36 51°24.695 2°43.735 -999 335 18.7 101460 49
2010-07-01 12:37 51°24.693 2°43.731 -999 334 18.9 101460 48
2010-07-01 12:38 51°24.682 2°43.714 -999 304 19.2 101460 48
2010-07-01 12:39 51°24.671 2°43.696 -999 304 19.4 101460 48
2010-07-01 12:40 51°24.66 2°43.679 -999 304 19.7 101460 48
2010-07-01 12:41 51°24.664 2°43.687 -999 304 19.9 101460 47
2010-07-01 12:42 51°24.675 2°43.717 -999 304 20 101460 46
2010-07-01 12:43 51°24.69 2°43.738 -999 304 19.9 101460 45
2010-07-01 12:44 51°24.684 2°43.731 0.1 57 19.9 101460 46
2010-07-01 12:45 51°24.664 2°43.698 -999 56 19.9 101460 45
2010-07-01 12:46 51°24.647 2°43.669 -999 56 20 101460 45
2010-07-01 12:47 51°24.644 2°43.67 0.1 326 20.1 101460 47
2010-07-01 12:48 51°24.667 2°43.699 -999 305 20.1 101450 44
2010-07-01 12:49 51°24.686 2°43.728 -999 305 20.1 101450 45
2010-07-01 12:50 51°24.683 2°43.723 -999 305 20.1 101450 45
2010-07-01 12:51 51°24.669 2°43.698 -999 305 20.3 101450 45
2010-07-01 12:52 51°24.659 2°43.681 -999 305 20.4 101450 45
2010-07-01 12:53 51°24.65 2°43.666 -999 305 20.5 101450 45
2010-07-01 12:54 51°24.652 2°43.67 -999 304 20.6 101450 45
2010-07-01 12:55 51°24.676 2°43.712 0.7 303 20.5 101450 42
2010-07-01 12:56 51°24.696 2°43.742 -999 304 20.3 101450 44
2010-07-01 12:57 51°24.696 2°43.739 -999 305 20.2 101450 44
2010-07-01 12:58 51°24.687 2°43.719 -999 304 20.1 101450 45
2010-07-01 12:59 51°24.679 2°43.703 -999 304 20.1 101450 45
2010-07-01 13:00 51°24.671 2°43.684 -999 304 20.1 101450 45
2010-07-01 13:01 51°24.668 2°43.672 -999 304 20 101450 45
2010-07-01 13:02 51°24.679 2°43.705 -999 304 20 101450 45
2010-07-01 13:03 51°24.692 2°43.73 -999 304 19.9 101460 44
2010-07-01 13:04 51°24.702 2°43.749 0.4 306 19.8 101450 45
2010-07-01 13:05 51°24.706 2°43.749 -999 305 19.8 101450 45
2010-07-01 13:06 51°24.706 2°43.75 -999 305 19.8 101450 45
2010-07-01 13:07 51°24.706 2°43.754 0.1 305 19.8 101450 46
2010-07-01 13:08 51°24.706 2°43.743 -999 305 19.7 101450 45
2010-07-01 13:09 51°24.704 2°43.731 -999 305 19.6 101440 45
2010-07-01 13:10 51°24.702 2°43.718 -999 305 19.5 101440 45
2010-07-01 13:11 51°24.701 2°43.703 -999 305 19.6 101440 44
2010-07-01 13:12 51°24.698 2°43.688 -999 305 19.6 101440 45
2010-07-01 13:13 51°24.701 2°43.683 -999 305 19.7 101430 46
2010-07-01 13:14 51°24.705 2°43.712 -999 305 19.7 101430 45
2010-07-01 13:15 51°24.689 2°43.755 -999 305 19.7 101430 45
2010-07-01 13:16 51°24.648 2°43.784 -999 304 19.8 101430 45
2010-07-01 13:17 51°24.534 2°43.866 4.2 329 19.8 101430 44
2010-07-01 13:18 51°24.338 2°44.004 4.5 302 19.4 101420 45
2010-07-01 13:19 51°24.147 2°44.18 4.7 327 19.2 101420 47
2010-07-01 13:20 51°23.962 2°44.373 5.2 299 19.1 101420 47
2010-07-01 13:21 51°23.775 2°44.561 4.9 302 19 101420 47
2010-07-01 13:22 51°23.588 2°44.746 4.3 301 18.9 101420 49
2010-07-01 13:23 51°23.401 2°44.937 4.3 301 18.8 101410 47
2010-07-01 13:24 51°23.211 2°45.121 4.7 300 18.8 101410 49
2010-07-01 13:25 51°23.022 2°45.307 4.4 326 18.8 101410 49
2010-07-01 13:26 51°22.835 2°45.498 4.1 326 18.8 101420 49
2010-07-01 13:27 51°22.645 2°45.686 4.6 304 18.8 101410 48
2010-07-01 13:28 51°22.456 2°45.878 4.5 302 18.8 101410 49
2010-07-01 13:29 51°22.264 2°46.071 4.2 302 18.8 101410 48
2010-07-01 13:30 51°22.072 2°46.269 4.5 301 18.9 101400 47
2010-07-01 13:31 51°21.879 2°46.474 4.2 303 19 101400 47
2010-07-01 13:32 51°21.686 2°46.68 4.5 305 19 101400 48
2010-07-01 13:33 51°21.506 2°46.914 5.3 309 19 101400 47
2010-07-01 13:34 51°21.329 2°47.156 4.4 302 19.1 101400 48
2010-07-01 13:35 51°21.148 2°47.369 3.9 308 19.1 101400 48
2010-07-01 13:36 51°20.966 2°47.576 4.2 302 19.1 101400 49
2010-07-01 13:37 51°20.784 2°47.785 3.6 303 19.1 101400 49
2010-07-01 13:38 51°20.601 2°47.992 3.8 305 19.1 101400 47
2010-07-01 13:39 51°20.421 2°48.2 3.7 308 19.1 101390 48
2010-07-01 13:40 51°20.24 2°48.408 3.9 322 19.2 101400 47
2010-07-01 13:41 51°20.057 2°48.617 3.6 305 19.3 101390 48
2010-07-01 13:42 51°19.875 2°48.828 3.9 301 19.3 101400 48
2010-07-01 13:43 51°19.691 2°49.042 4 304 19.4 101390 45
2010-07-01 13:44 51°19.508 2°49.258 4 302 19.5 101380 46
2010-07-01 13:45 51°19.324 2°49.475 4.3 305 19.5 101390 46
2010-07-01 13:46 51°19.141 2°49.699 3.9 306 19.4 101390 47
2010-07-01 13:47 51°18.957 2°49.923 4.2 306 19.4 101390 46
2010-07-01 13:48 51°18.759 2°50.118 2.6 306 19.4 101390 47
2010-07-01 13:49 51°18.558 2°50.302 3.8 302 19.4 101380 46
2010-07-01 13:50 51°18.359 2°50.487 3.5 306 19.4 101380 47
2010-07-01 13:51 51°18.159 2°50.677 3.7 302 19.4 101380 46
2010-07-01 13:52 51°17.96 2°50.865 3.5 306 19.3 101380 45
2010-07-01 13:53 51°17.762 2°51.055 3.7 303 19.4 101380 46
2010-07-01 13:54 51°17.565 2°51.246 3.6 305 19.4 101380 47
2010-07-01 13:55 51°17.368 2°51.44 3.2 301 19.4 101380 46
2010-07-01 13:56 51°17.172 2°51.637 3.7 302 19.4 101380 45
2010-07-01 13:57 51°16.99 2°51.863 3.6 302 19.4 101370 47
2010-07-01 13:58 51°16.815 2°52.105 3.7 300 19.4 101370 46
2010-07-01 13:59 51°16.638 2°52.344 3.9 307 19.4 101370 44
2010-07-01 14:00 51°16.463 2°52.588 3.3 308 19.4 101370 44
2010-07-01 14:01 51°16.288 2°52.834 3.8 300 19.5 101360 46
2010-07-01 14:02 51°16.112 2°53.075 3.6 300 19.5 101360 45
2010-07-01 14:03 51°15.933 2°53.309 3.6 302 19.5 101360 46
2010-07-01 14:04 51°15.75 2°53.53 3.5 302 19.5 101360 45
2010-07-01 14:05 51°15.569 2°53.754 3.9 303 19.5 101360 46
2010-07-01 14:06 51°15.389 2°53.976 3.4 306 19.6 101350 48
2010-07-01 14:07 51°15.21 2°54.197 4 308 19.5 101350 45
2010-07-01 14:08 51°15.03 2°54.412 4 300 19.5 101350 45
2010-07-01 14:09 51°14.85 2°54.625 3.8 306 19.5 101350 46
2010-07-01 14:10 51°14.668 2°54.828 4.6 301 19.6 101350 47
2010-07-01 14:11 51°14.496 2°55.055 4.9 299 19.6 101350 47
2010-07-01 14:12 51°14.341 2°55.214 2.7 305 19.7 101350 46
2010-07-01 14:13 51°14.228 2°55.316 2.6 305 19.7 101350 46
2010-07-01 14:14 51°14.117 2°55.407 3.1 308 19.7 101360 46
2010-07-01 14:15 51°13.993 2°55.5 2 307 19.8 101350 45
2010-07-01 14:16 51°13.889 2°55.578 1.7 305 19.9 101350 46
2010-07-01 14:17 51°13.799 2°55.653 2.1 302 19.9 101350 46
2010-07-01 14:18 51°13.739 2°55.752 2.6 309 20.1 101340 47
2010-07-01 14:19 51°13.695 2°55.842 1.4 304 20.2 101350 47
2010-07-01 14:20 51°13.676 2°55.912 3.5 307 20.4 101340 45
2010-07-01 14:21 51°13.663 2°55.956 2.6 306 20.5 101340 43